sensor_id;sensor_type;location;lat;lon;timestamp;temperature;humidity
25945;SHT31;13742;49.306;8.636;2023-06-19T00:00:23;25.22;47.98
25945;SHT31;13742;49.306;8.636;2023-06-19T00:01:23;25.20;48.04
25945;SHT31;13742;49.306;8.636;2023-06-19T00:02:23;25.18;47.36
25945;SHT31;13742;49.306;8.636;2023-06-19T00:03:23;25.13;47.85
25945;SHT31;13742;49.306;8.636;2023-06-19T00:04:23;25.13;47.78
25945;SHT31;13742;49.306;8.636;2023-06-19T00:05:25;25.10;48.07
25945;SHT31;13742;49.306;8.636;2023-06-19T00:06:23;25.09;48.04
25945;SHT31;13742;49.306;8.636;2023-06-19T00:07:23;25.10;47.61
25945;SHT31;13742;49.306;8.636;2023-06-19T00:08:23;25.08;47.83
25945;SHT31;13742;49.306;8.636;2023-06-19T00:09:23;25.06;48.10
25945;SHT31;13742;49.306;8.636;2023-06-19T00:10:23;25.06;47.40
25945;SHT31;13742;49.306;8.636;2023-06-19T00:11:23;25.05;47.71
25945;SHT31;13742;49.306;8.636;2023-06-19T00:12:23;25.05;48.13
25945;SHT31;13742;49.306;8.636;2023-06-19T00:13:23;25.05;48.88
25945;SHT31;13742;49.306;8.636;2023-06-19T00:14:23;25.01;48.73
25945;SHT31;13742;49.306;8.636;2023-06-19T00:15:23;25.03;48.31
25945;SHT31;13742;49.306;8.636;2023-06-19T00:16:25;24.97;48.26
25945;SHT31;13742;49.306;8.636;2023-06-19T00:17:27;24.98;48.94
25945;SHT31;13742;49.306;8.636;2023-06-19T00:18:23;24.98;48.86
25945;SHT31;13742;49.306;8.636;2023-06-19T00:19:23;24.99;49.12
25945;SHT31;13742;49.306;8.636;2023-06-19T00:20:23;24.95;48.67
25945;SHT31;13742;49.306;8.636;2023-06-19T00:21:25;24.92;48.75
25945;SHT31;13742;49.306;8.636;2023-06-19T00:22:24;24.92;48.68
25945;SHT31;13742;49.306;8.636;2023-06-19T00:23:23;24.92;48.64
25945;SHT31;13742;49.306;8.636;2023-06-19T00:24:23;24.92;48.77
25945;SHT31;13742;49.306;8.636;2023-06-19T00:25:23;24.91;48.70
25945;SHT31;13742;49.306;8.636;2023-06-19T00:26:23;24.92;49.12
25945;SHT31;13742;49.306;8.636;2023-06-19T00:27:24;24.92;48.75
25945;SHT31;13742;49.306;8.636;2023-06-19T00:28:23;24.95;49.14
25945;SHT31;13742;49.306;8.636;2023-06-19T00:29:28;24.95;48.86
25945;SHT31;13742;49.306;8.636;2023-06-19T00:30:23;24.94;48.78
25945;SHT31;13742;49.306;8.636;2023-06-19T00:31:23;24.91;48.88
25945;SHT31;13742;49.306;8.636;2023-06-19T00:32:23;24.89;49.97
25945;SHT31;13742;49.306;8.636;2023-06-19T00:33:23;24.92;49.32
25945;SHT31;13742;49.306;8.636;2023-06-19T00:34:24;24.91;48.88
25945;SHT31;13742;49.306;8.636;2023-06-19T00:35:24;24.91;48.87
25945;SHT31;13742;49.306;8.636;2023-06-19T00:36:26;24.89;49.04
25945;SHT31;13742;49.306;8.636;2023-06-19T00:37:23;24.89;49.63
25945;SHT31;13742;49.306;8.636;2023-06-19T00:38:23;24.86;49.74
25945;SHT31;13742;49.306;8.636;2023-06-19T00:39:23;24.85;50.29
25945;SHT31;13742;49.306;8.636;2023-06-19T00:40:29;24.85;49.79
25945;SHT31;13742;49.306;8.636;2023-06-19T00:41:24;24.86;49.68
25945;SHT31;13742;49.306;8.636;2023-06-19T00:42:23;24.86;49.64
25945;SHT31;13742;49.306;8.636;2023-06-19T00:43:23;24.83;49.74
25945;SHT31;13742;49.306;8.636;2023-06-19T00:44:23;24.85;50.57
25945;SHT31;13742;49.306;8.636;2023-06-19T00:45:27;24.82;51.50
25945;SHT31;13742;49.306;8.636;2023-06-19T00:46:23;24.83;51.11
25945;SHT31;13742;49.306;8.636;2023-06-19T00:47:24;24.79;50.23
25945;SHT31;13742;49.306;8.636;2023-06-19T00:48:23;24.82;50.66
25945;SHT31;13742;49.306;8.636;2023-06-19T00:49:25;24.82;50.29
25945;SHT31;13742;49.306;8.636;2023-06-19T00:50:24;24.83;50.80
25945;SHT31;13742;49.306;8.636;2023-06-19T00:51:23;24.83;50.24
25945;SHT31;13742;49.306;8.636;2023-06-19T00:52:23;24.82;50.48
25945;SHT31;13742;49.306;8.636;2023-06-19T00:53:25;24.82;51.03
25945;SHT31;13742;49.306;8.636;2023-06-19T00:54:23;24.82;50.91
25945;SHT31;13742;49.306;8.636;2023-06-19T00:55:26;24.81;51.15
25945;SHT31;13742;49.306;8.636;2023-06-19T00:56:23;24.79;51.00
25945;SHT31;13742;49.306;8.636;2023-06-19T00:57:23;24.79;51.98
25945;SHT31;13742;49.306;8.636;2023-06-19T00:58:24;24.78;51.81
25945;SHT31;13742;49.306;8.636;2023-06-19T00:59:23;24.77;51.72
25945;SHT31;13742;49.306;8.636;2023-06-19T01:00:23;24.72;51.49
25945;SHT31;13742;49.306;8.636;2023-06-19T01:01:24;24.74;51.29
25945;SHT31;13742;49.306;8.636;2023-06-19T01:02:24;24.75;51.83
25945;SHT31;13742;49.306;8.636;2023-06-19T01:03:23;24.70;52.05
25945;SHT31;13742;49.306;8.636;2023-06-19T01:04:25;24.67;51.87
25945;SHT31;13742;49.306;8.636;2023-06-19T01:05:23;24.68;52.30
25945;SHT31;13742;49.306;8.636;2023-06-19T01:06:29;24.65;52.20
25945;SHT31;13742;49.306;8.636;2023-06-19T01:07:34;24.64;51.91
25945;SHT31;13742;49.306;8.636;2023-06-19T01:08:42;24.65;51.85
25945;SHT31;13742;49.306;8.636;2023-06-19T01:09:28;24.65;51.84
25945;SHT31;13742;49.306;8.636;2023-06-19T01:10:29;24.61;52.26
25945;SHT31;13742;49.306;8.636;2023-06-19T01:11:28;24.64;51.93
25945;SHT31;13742;49.306;8.636;2023-06-19T01:12:30;24.61;52.30
25945;SHT31;13742;49.306;8.636;2023-06-19T01:13:34;24.61;52.93
25945;SHT31;13742;49.306;8.636;2023-06-19T01:14:32;24.60;52.01
25945;SHT31;13742;49.306;8.636;2023-06-19T01:15:25;24.58;52.09
25945;SHT31;13742;49.306;8.636;2023-06-19T01:16:24;24.57;52.52
25945;SHT31;13742;49.306;8.636;2023-06-19T01:17:25;24.52;52.39
25945;SHT31;13742;49.306;8.636;2023-06-19T01:18:24;24.51;52.51
25945;SHT31;13742;49.306;8.636;2023-06-19T01:19:23;24.48;52.12
25945;SHT31;13742;49.306;8.636;2023-06-19T01:20:24;24.48;53.19
25945;SHT31;13742;49.306;8.636;2023-06-19T01:21:23;24.48;52.91
25945;SHT31;13742;49.306;8.636;2023-06-19T01:22:28;24.48;52.72
25945;SHT31;13742;49.306;8.636;2023-06-19T01:23:23;24.47;52.45
25945;SHT31;13742;49.306;8.636;2023-06-19T01:24:23;24.46;52.57
25945;SHT31;13742;49.306;8.636;2023-06-19T01:25:24;24.43;53.25
25945;SHT31;13742;49.306;8.636;2023-06-19T01:26:26;24.40;53.35
25945;SHT31;13742;49.306;8.636;2023-06-19T01:27:24;24.39;53.05
25945;SHT31;13742;49.306;8.636;2023-06-19T01:28:23;24.36;53.34
25945;SHT31;13742;49.306;8.636;2023-06-19T01:29:23;24.33;53.30
25945;SHT31;13742;49.306;8.636;2023-06-19T01:30:23;24.36;53.10
25945;SHT31;13742;49.306;8.636;2023-06-19T01:32:13;24.36;53.09
25945;SHT31;13742;49.306;8.636;2023-06-19T01:33:27;24.33;53.10
25945;SHT31;13742;49.306;8.636;2023-06-19T01:34:25;24.28;53.48
25945;SHT31;13742;49.306;8.636;2023-06-19T01:35:25;24.25;53.72
25945;SHT31;13742;49.306;8.636;2023-06-19T01:36:23;24.23;53.85
25945;SHT31;13742;49.306;8.636;2023-06-19T01:37:24;24.14;54.41
25945;SHT31;13742;49.306;8.636;2023-06-19T01:38:27;24.11;54.61
25945;SHT31;13742;49.306;8.636;2023-06-19T01:39:24;24.11;54.51
25945;SHT31;13742;49.306;8.636;2023-06-19T01:40:26;24.11;54.47
25945;SHT31;13742;49.306;8.636;2023-06-19T01:41:24;24.13;54.69
25945;SHT31;13742;49.306;8.636;2023-06-19T01:42:26;24.13;54.95
25945;SHT31;13742;49.306;8.636;2023-06-19T01:43:24;24.11;55.01
25945;SHT31;13742;49.306;8.636;2023-06-19T01:44:23;24.10;54.97
25945;SHT31;13742;49.306;8.636;2023-06-19T01:45:23;24.13;55.09
25945;SHT31;13742;49.306;8.636;2023-06-19T01:46:23;24.17;54.94
25945;SHT31;13742;49.306;8.636;2023-06-19T01:47:23;24.17;54.96
25945;SHT31;13742;49.306;8.636;2023-06-19T01:48:23;24.19;54.76
25945;SHT31;13742;49.306;8.636;2023-06-19T01:49:23;24.14;55.26
25945;SHT31;13742;49.306;8.636;2023-06-19T01:50:23;24.09;55.27
25945;SHT31;13742;49.306;8.636;2023-06-19T01:51:23;24.10;55.10
25945;SHT31;13742;49.306;8.636;2023-06-19T01:52:24;24.09;54.91
25945;SHT31;13742;49.306;8.636;2023-06-19T01:53:23;24.07;55.44
25945;SHT31;13742;49.306;8.636;2023-06-19T01:54:23;24.11;54.99
25945;SHT31;13742;49.306;8.636;2023-06-19T01:55:23;24.13;54.72
25945;SHT31;13742;49.306;8.636;2023-06-19T01:56:24;24.13;54.91
25945;SHT31;13742;49.306;8.636;2023-06-19T01:57:23;24.14;55.19
25945;SHT31;13742;49.306;8.636;2023-06-19T01:58:23;24.14;54.66
25945;SHT31;13742;49.306;8.636;2023-06-19T01:59:23;24.16;54.54
25945;SHT31;13742;49.306;8.636;2023-06-19T02:00:23;24.17;54.08
25945;SHT31;13742;49.306;8.636;2023-06-19T02:01:23;24.17;54.57
25945;SHT31;13742;49.306;8.636;2023-06-19T02:02:23;24.19;54.19
25945;SHT31;13742;49.306;8.636;2023-06-19T02:03:23;24.19;54.13
25945;SHT31;13742;49.306;8.636;2023-06-19T02:04:23;24.21;54.29
25945;SHT31;13742;49.306;8.636;2023-06-19T02:05:23;24.20;53.73
25945;SHT31;13742;49.306;8.636;2023-06-19T02:06:23;24.21;54.01
25945;SHT31;13742;49.306;8.636;2023-06-19T02:07:23;24.20;54.31
25945;SHT31;13742;49.306;8.636;2023-06-19T02:08:23;24.19;53.91
25945;SHT31;13742;49.306;8.636;2023-06-19T02:09:23;24.21;54.78
25945;SHT31;13742;49.306;8.636;2023-06-19T02:10:23;24.19;54.95
25945;SHT31;13742;49.306;8.636;2023-06-19T02:11:23;24.21;54.85
25945;SHT31;13742;49.306;8.636;2023-06-19T02:12:23;24.19;55.23
25945;SHT31;13742;49.306;8.636;2023-06-19T02:13:23;24.20;54.56
25945;SHT31;13742;49.306;8.636;2023-06-19T02:14:23;24.20;55.70
25945;SHT31;13742;49.306;8.636;2023-06-19T02:15:23;24.19;56.43
25945;SHT31;13742;49.306;8.636;2023-06-19T02:16:23;24.14;56.07
25945;SHT31;13742;49.306;8.636;2023-06-19T02:17:23;24.13;55.84
25945;SHT31;13742;49.306;8.636;2023-06-19T02:18:23;24.10;56.73
25945;SHT31;13742;49.306;8.636;2023-06-19T02:19:23;24.11;56.56
25945;SHT31;13742;49.306;8.636;2023-06-19T02:20:24;24.07;57.37
25945;SHT31;13742;49.306;8.636;2023-06-19T02:21:23;24.04;56.95
25945;SHT31;13742;49.306;8.636;2023-06-19T02:22:23;24.04;57.29
25945;SHT31;13742;49.306;8.636;2023-06-19T02:23:23;24.02;57.75
25945;SHT31;13742;49.306;8.636;2023-06-19T02:24:23;24.02;57.96
25945;SHT31;13742;49.306;8.636;2023-06-19T02:25:23;24.00;58.12
25945;SHT31;13742;49.306;8.636;2023-06-19T02:26:23;23.95;59.49
25945;SHT31;13742;49.306;8.636;2023-06-19T02:27:23;23.83;59.94
25945;SHT31;13742;49.306;8.636;2023-06-19T02:28:23;23.83;59.62
25945;SHT31;13742;49.306;8.636;2023-06-19T02:29:23;23.85;59.55
25945;SHT31;13742;49.306;8.636;2023-06-19T02:30:23;23.82;59.29
25945;SHT31;13742;49.306;8.636;2023-06-19T02:31:23;23.83;60.41
25945;SHT31;13742;49.306;8.636;2023-06-19T02:32:23;23.76;60.67
25945;SHT31;13742;49.306;8.636;2023-06-19T02:33:23;23.71;60.94
25945;SHT31;13742;49.306;8.636;2023-06-19T02:34:24;23.72;61.21
25945;SHT31;13742;49.306;8.636;2023-06-19T02:35:23;23.69;60.74
25945;SHT31;13742;49.306;8.636;2023-06-19T02:36:23;23.68;61.76
25945;SHT31;13742;49.306;8.636;2023-06-19T02:37:23;23.63;61.85
25945;SHT31;13742;49.306;8.636;2023-06-19T02:38:23;23.63;61.58
25945;SHT31;13742;49.306;8.636;2023-06-19T02:39:23;23.62;62.46
25945;SHT31;13742;49.306;8.636;2023-06-19T02:40:23;23.61;61.66
25945;SHT31;13742;49.306;8.636;2023-06-19T02:41:23;23.62;62.17
25945;SHT31;13742;49.306;8.636;2023-06-19T02:42:23;23.62;61.34
25945;SHT31;13742;49.306;8.636;2023-06-19T02:43:23;23.61;61.07
25945;SHT31;13742;49.306;8.636;2023-06-19T02:44:23;23.62;62.19
25945;SHT31;13742;49.306;8.636;2023-06-19T02:45:23;23.61;62.17
25945;SHT31;13742;49.306;8.636;2023-06-19T02:46:23;23.59;61.41
25945;SHT31;13742;49.306;8.636;2023-06-19T02:47:23;23.56;61.40
25945;SHT31;13742;49.306;8.636;2023-06-19T02:48:23;23.58;61.66
25945;SHT31;13742;49.306;8.636;2023-06-19T02:49:23;23.59;61.22
25945;SHT31;13742;49.306;8.636;2023-06-19T02:50:23;23.49;63.95
25945;SHT31;13742;49.306;8.636;2023-06-19T02:51:23;23.30;66.59
25945;SHT31;13742;49.306;8.636;2023-06-19T02:52:23;23.35;64.39
25945;SHT31;13742;49.306;8.636;2023-06-19T02:53:23;23.37;65.33
25945;SHT31;13742;49.306;8.636;2023-06-19T02:54:23;23.28;66.30
25945;SHT31;13742;49.306;8.636;2023-06-19T02:55:23;23.17;65.39
25945;SHT31;13742;49.306;8.636;2023-06-19T02:56:25;23.14;65.47
25945;SHT31;13742;49.306;8.636;2023-06-19T02:57:23;23.17;65.47
25945;SHT31;13742;49.306;8.636;2023-06-19T02:58:23;23.17;66.60
25945;SHT31;13742;49.306;8.636;2023-06-19T02:59:23;23.11;66.56
25945;SHT31;13742;49.306;8.636;2023-06-19T03:00:23;23.13;65.78
25945;SHT31;13742;49.306;8.636;2023-06-19T03:01:23;23.00;66.56
25945;SHT31;13742;49.306;8.636;2023-06-19T03:02:23;23.00;65.83
25945;SHT31;13742;49.306;8.636;2023-06-19T03:03:23;23.01;66.67
25945;SHT31;13742;49.306;8.636;2023-06-19T03:04:23;22.94;67.18
25945;SHT31;13742;49.306;8.636;2023-06-19T03:05:23;22.97;66.33
25945;SHT31;13742;49.306;8.636;2023-06-19T03:06:23;22.95;67.07
25945;SHT31;13742;49.306;8.636;2023-06-19T03:07:25;22.91;68.32
25945;SHT31;13742;49.306;8.636;2023-06-19T03:08:24;22.87;67.34
25945;SHT31;13742;49.306;8.636;2023-06-19T03:09:23;22.87;67.28
25945;SHT31;13742;49.306;8.636;2023-06-19T03:10:23;22.91;67.22
25945;SHT31;13742;49.306;8.636;2023-06-19T03:11:23;22.90;68.00
25945;SHT31;13742;49.306;8.636;2023-06-19T03:12:23;22.89;67.51
25945;SHT31;13742;49.306;8.636;2023-06-19T03:13:23;22.90;67.36
25945;SHT31;13742;49.306;8.636;2023-06-19T03:14:23;22.89;67.05
25945;SHT31;13742;49.306;8.636;2023-06-19T03:15:23;22.87;67.39
25945;SHT31;13742;49.306;8.636;2023-06-19T03:16:23;22.86;68.35
25945;SHT31;13742;49.306;8.636;2023-06-19T03:17:23;22.76;68.53
25945;SHT31;13742;49.306;8.636;2023-06-19T03:18:23;22.76;68.05
25945;SHT31;13742;49.306;8.636;2023-06-19T03:19:23;22.73;67.35
25945;SHT31;13742;49.306;8.636;2023-06-19T03:20:23;22.77;68.08
25945;SHT31;13742;49.306;8.636;2023-06-19T03:21:23;22.79;67.95
25945;SHT31;13742;49.306;8.636;2023-06-19T03:22:23;22.80;68.49
25945;SHT31;13742;49.306;8.636;2023-06-19T03:23:23;22.77;68.45
25945;SHT31;13742;49.306;8.636;2023-06-19T03:24:23;22.77;68.25
25945;SHT31;13742;49.306;8.636;2023-06-19T03:25:23;22.76;68.02
25945;SHT31;13742;49.306;8.636;2023-06-19T03:26:24;22.74;69.47
25945;SHT31;13742;49.306;8.636;2023-06-19T03:27:26;22.77;68.33
25945;SHT31;13742;49.306;8.636;2023-06-19T03:28:23;22.72;67.55
25945;SHT31;13742;49.306;8.636;2023-06-19T03:29:23;22.76;67.42
25945;SHT31;13742;49.306;8.636;2023-06-19T03:30:23;22.74;67.41
25945;SHT31;13742;49.306;8.636;2023-06-19T03:31:23;22.74;68.74
25945;SHT31;13742;49.306;8.636;2023-06-19T03:32:23;22.70;68.84
25945;SHT31;13742;49.306;8.636;2023-06-19T03:33:23;22.66;68.85
25945;SHT31;13742;49.306;8.636;2023-06-19T03:34:23;22.63;70.28
25945;SHT31;13742;49.306;8.636;2023-06-19T03:35:23;22.62;70.14
25945;SHT31;13742;49.306;8.636;2023-06-19T03:36:23;22.56;70.01
25945;SHT31;13742;49.306;8.636;2023-06-19T03:37:23;22.49;70.39
25945;SHT31;13742;49.306;8.636;2023-06-19T03:38:23;22.47;68.91
25945;SHT31;13742;49.306;8.636;2023-06-19T03:39:23;22.47;68.30
25945;SHT31;13742;49.306;8.636;2023-06-19T03:40:23;22.52;69.95
25945;SHT31;13742;49.306;8.636;2023-06-19T03:41:23;22.49;69.40
25945;SHT31;13742;49.306;8.636;2023-06-19T03:42:23;22.46;69.57
25945;SHT31;13742;49.306;8.636;2023-06-19T03:43:23;22.46;70.32
25945;SHT31;13742;49.306;8.636;2023-06-19T03:44:23;22.46;72.47
25945;SHT31;13742;49.306;8.636;2023-06-19T03:45:23;22.35;71.00
25945;SHT31;13742;49.306;8.636;2023-06-19T03:46:23;22.32;71.66
25945;SHT31;13742;49.306;8.636;2023-06-19T03:47:23;22.38;70.41
25945;SHT31;13742;49.306;8.636;2023-06-19T03:48:23;22.35;71.82
25945;SHT31;13742;49.306;8.636;2023-06-19T03:49:23;22.33;71.14
25945;SHT31;13742;49.306;8.636;2023-06-19T03:50:23;22.35;70.41
25945;SHT31;13742;49.306;8.636;2023-06-19T03:51:23;22.31;69.78
25945;SHT31;13742;49.306;8.636;2023-06-19T03:52:23;22.29;69.61
25945;SHT31;13742;49.306;8.636;2023-06-19T03:53:23;22.35;69.35
25945;SHT31;13742;49.306;8.636;2023-06-19T03:54:23;22.35;69.03
25945;SHT31;13742;49.306;8.636;2023-06-19T03:55:23;22.39;69.99
25945;SHT31;13742;49.306;8.636;2023-06-19T03:56:23;22.39;69.81
25945;SHT31;13742;49.306;8.636;2023-06-19T03:57:23;22.38;70.03
25945;SHT31;13742;49.306;8.636;2023-06-19T03:58:23;22.39;68.96
25945;SHT31;13742;49.306;8.636;2023-06-19T03:59:23;22.39;69.45
25945;SHT31;13742;49.306;8.636;2023-06-19T04:00:23;22.38;69.00
25945;SHT31;13742;49.306;8.636;2023-06-19T04:01:23;22.39;68.96
25945;SHT31;13742;49.306;8.636;2023-06-19T04:02:23;22.42;69.33
25945;SHT31;13742;49.306;8.636;2023-06-19T04:03:23;22.38;69.01
25945;SHT31;13742;49.306;8.636;2023-06-19T04:04:24;22.42;68.53
25945;SHT31;13742;49.306;8.636;2023-06-19T04:05:23;22.42;68.40
25945;SHT31;13742;49.306;8.636;2023-06-19T04:06:23;22.43;70.61
25945;SHT31;13742;49.306;8.636;2023-06-19T04:07:23;22.43;69.09
25945;SHT31;13742;49.306;8.636;2023-06-19T04:08:23;22.42;70.69
25945;SHT31;13742;49.306;8.636;2023-06-19T04:09:23;22.45;69.67
25945;SHT31;13742;49.306;8.636;2023-06-19T04:10:23;22.36;71.00
25945;SHT31;13742;49.306;8.636;2023-06-19T04:11:23;22.39;69.01
25945;SHT31;13742;49.306;8.636;2023-06-19T04:12:23;22.43;69.16
25945;SHT31;13742;49.306;8.636;2023-06-19T04:13:24;22.42;68.98
25945;SHT31;13742;49.306;8.636;2023-06-19T04:14:23;22.43;69.28
25945;SHT31;13742;49.306;8.636;2023-06-19T04:15:23;22.46;68.74
25945;SHT31;13742;49.306;8.636;2023-06-19T04:16:23;22.47;68.26
25945;SHT31;13742;49.306;8.636;2023-06-19T04:17:23;22.49;70.11
25945;SHT31;13742;49.306;8.636;2023-06-19T04:18:23;22.49;69.14
25945;SHT31;13742;49.306;8.636;2023-06-19T04:19:23;22.51;69.04
25945;SHT31;13742;49.306;8.636;2023-06-19T04:20:23;22.51;68.17
25945;SHT31;13742;49.306;8.636;2023-06-19T04:21:23;22.51;68.20
25945;SHT31;13742;49.306;8.636;2023-06-19T04:22:23;22.51;69.25
25945;SHT31;13742;49.306;8.636;2023-06-19T04:23:23;22.52;67.96
25945;SHT31;13742;49.306;8.636;2023-06-19T04:24:23;22.52;69.90
25945;SHT31;13742;49.306;8.636;2023-06-19T04:25:23;22.35;70.58
25945;SHT31;13742;49.306;8.636;2023-06-19T04:26:24;22.38;69.08
25945;SHT31;13742;49.306;8.636;2023-06-19T04:27:23;22.42;68.82
25945;SHT31;13742;49.306;8.636;2023-06-19T04:28:23;22.40;68.76
25945;SHT31;13742;49.306;8.636;2023-06-19T04:29:23;22.40;69.83
25945;SHT31;13742;49.306;8.636;2023-06-19T04:30:23;22.43;69.79
25945;SHT31;13742;49.306;8.636;2023-06-19T04:31:23;22.43;69.11
25945;SHT31;13742;49.306;8.636;2023-06-19T04:32:23;22.39;69.72
25945;SHT31;13742;49.306;8.636;2023-06-19T04:33:26;22.40;68.53
25945;SHT31;13742;49.306;8.636;2023-06-19T04:34:23;22.45;68.49
25945;SHT31;13742;49.306;8.636;2023-06-19T04:35:24;22.42;68.55
25945;SHT31;13742;49.306;8.636;2023-06-19T04:36:23;22.43;70.03
25945;SHT31;13742;49.306;8.636;2023-06-19T04:37:23;22.39;70.30
25945;SHT31;13742;49.306;8.636;2023-06-19T04:38:24;22.29;70.38
25945;SHT31;13742;49.306;8.636;2023-06-19T04:39:23;22.32;70.09
25945;SHT31;13742;49.306;8.636;2023-06-19T04:40:25;22.28;71.66
25945;SHT31;13742;49.306;8.636;2023-06-19T04:41:23;22.33;71.25
25945;SHT31;13742;49.306;8.636;2023-06-19T04:42:24;22.19;71.04
25945;SHT31;13742;49.306;8.636;2023-06-19T04:43:24;22.18;70.32
25945;SHT31;13742;49.306;8.636;2023-06-19T04:44:23;22.19;70.56
25945;SHT31;13742;49.306;8.636;2023-06-19T04:45:23;22.21;69.64
25945;SHT31;13742;49.306;8.636;2023-06-19T04:46:23;22.21;70.25
25945;SHT31;13742;49.306;8.636;2023-06-19T04:47:23;22.21;70.00
25945;SHT31;13742;49.306;8.636;2023-06-19T04:48:25;22.11;70.66
25945;SHT31;13742;49.306;8.636;2023-06-19T04:49:23;22.15;70.33
25945;SHT31;13742;49.306;8.636;2023-06-19T04:50:23;22.16;70.21
25945;SHT31;13742;49.306;8.636;2023-06-19T04:55:25;22.19;71.18
25945;SHT31;13742;49.306;8.636;2023-06-19T04:56:23;22.19;70.45
25945;SHT31;13742;49.306;8.636;2023-06-19T05:02:07;22.16;69.89
25945;SHT31;13742;49.306;8.636;2023-06-19T05:02:23;22.19;69.41
25945;SHT31;13742;49.306;8.636;2023-06-19T05:03:23;22.21;69.17
25945;SHT31;13742;49.306;8.636;2023-06-19T05:04:23;22.22;69.69
25945;SHT31;13742;49.306;8.636;2023-06-19T05:05:23;22.18;69.64
25945;SHT31;13742;49.306;8.636;2023-06-19T05:06:23;22.21;68.92
25945;SHT31;13742;49.306;8.636;2023-06-19T05:07:23;22.24;69.55
25945;SHT31;13742;49.306;8.636;2023-06-19T05:08:23;22.25;69.45
25945;SHT31;13742;49.306;8.636;2023-06-19T05:09:23;22.28;69.85
25945;SHT31;13742;49.306;8.636;2023-06-19T05:10:23;22.31;69.29
25945;SHT31;13742;49.306;8.636;2023-06-19T05:11:23;22.32;69.18
25945;SHT31;13742;49.306;8.636;2023-06-19T05:12:23;22.33;68.46
25945;SHT31;13742;49.306;8.636;2023-06-19T05:13:24;22.39;68.45
25945;SHT31;13742;49.306;8.636;2023-06-19T05:14:23;22.33;69.05
25945;SHT31;13742;49.306;8.636;2023-06-19T05:15:23;22.32;68.89
25945;SHT31;13742;49.306;8.636;2023-06-19T05:16:24;22.33;68.71
25945;SHT31;13742;49.306;8.636;2023-06-19T05:17:23;22.35;68.23
25945;SHT31;13742;49.306;8.636;2023-06-19T05:18:23;22.36;68.76
25945;SHT31;13742;49.306;8.636;2023-06-19T05:19:23;22.39;69.35
25945;SHT31;13742;49.306;8.636;2023-06-19T05:20:23;22.40;69.71
25945;SHT31;13742;49.306;8.636;2023-06-19T05:21:23;22.43;68.98
25945;SHT31;13742;49.306;8.636;2023-06-19T05:22:24;22.40;68.68
25945;SHT31;13742;49.306;8.636;2023-06-19T05:23:23;22.42;68.52
25945;SHT31;13742;49.306;8.636;2023-06-19T05:24:23;22.40;68.61
25945;SHT31;13742;49.306;8.636;2023-06-19T05:25:23;22.40;67.94
25945;SHT31;13742;49.306;8.636;2023-06-19T05:26:23;22.43;68.71
25945;SHT31;13742;49.306;8.636;2023-06-19T05:27:23;22.33;68.86
25945;SHT31;13742;49.306;8.636;2023-06-19T05:28:23;22.35;68.00
25945;SHT31;13742;49.306;8.636;2023-06-19T05:29:23;22.39;68.70
25945;SHT31;13742;49.306;8.636;2023-06-19T05:30:23;22.40;69.19
25945;SHT31;13742;49.306;8.636;2023-06-19T05:31:23;22.43;68.85
25945;SHT31;13742;49.306;8.636;2023-06-19T05:32:23;22.46;69.49
25945;SHT31;13742;49.306;8.636;2023-06-19T05:33:23;22.49;68.56
25945;SHT31;13742;49.306;8.636;2023-06-19T05:34:23;22.53;68.42
25945;SHT31;13742;49.306;8.636;2023-06-19T05:35:23;22.52;68.77
25945;SHT31;13742;49.306;8.636;2023-06-19T05:36:23;22.53;68.65
25945;SHT31;13742;49.306;8.636;2023-06-19T05:37:23;22.55;68.58
25945;SHT31;13742;49.306;8.636;2023-06-19T05:38:25;22.59;68.23
25945;SHT31;13742;49.306;8.636;2023-06-19T05:39:23;22.60;68.41
25945;SHT31;13742;49.306;8.636;2023-06-19T05:40:23;22.59;68.99
25945;SHT31;13742;49.306;8.636;2023-06-19T05:41:23;22.62;68.50
25945;SHT31;13742;49.306;8.636;2023-06-19T05:42:23;22.63;68.23
25945;SHT31;13742;49.306;8.636;2023-06-19T05:43:24;22.66;68.08
25945;SHT31;13742;49.306;8.636;2023-06-19T05:44:23;22.66;68.14
25945;SHT31;13742;49.306;8.636;2023-06-19T05:45:23;22.69;68.82
25945;SHT31;13742;49.306;8.636;2023-06-19T05:46:23;22.70;68.93
25945;SHT31;13742;49.306;8.636;2023-06-19T05:47:25;22.66;68.56
25945;SHT31;13742;49.306;8.636;2023-06-19T05:48:24;22.67;68.90
25945;SHT31;13742;49.306;8.636;2023-06-19T05:49:23;22.67;68.23
25945;SHT31;13742;49.306;8.636;2023-06-19T05:50:23;22.67;68.97
25945;SHT31;13742;49.306;8.636;2023-06-19T05:51:23;22.63;68.71
25945;SHT31;13742;49.306;8.636;2023-06-19T05:52:23;22.62;68.92
25945;SHT31;13742;49.306;8.636;2023-06-19T05:53:23;22.62;68.98
25945;SHT31;13742;49.306;8.636;2023-06-19T05:54:23;22.59;68.97
25945;SHT31;13742;49.306;8.636;2023-06-19T05:55:25;22.62;69.05
25945;SHT31;13742;49.306;8.636;2023-06-19T05:56:23;22.63;68.43
25945;SHT31;13742;49.306;8.636;2023-06-19T05:57:23;22.64;69.11
25945;SHT31;13742;49.306;8.636;2023-06-19T05:58:25;22.67;69.11
25945;SHT31;13742;49.306;8.636;2023-06-19T05:59:23;22.70;68.91
25945;SHT31;13742;49.306;8.636;2023-06-19T06:00:23;22.70;68.90
25945;SHT31;13742;49.306;8.636;2023-06-19T06:01:24;22.66;68.93
25945;SHT31;13742;49.306;8.636;2023-06-19T06:02:23;22.72;68.71
25945;SHT31;13742;49.306;8.636;2023-06-19T06:03:26;22.70;69.03
25945;SHT31;13742;49.306;8.636;2023-06-19T06:04:26;22.74;68.57
25945;SHT31;13742;49.306;8.636;2023-06-19T06:05:24;22.73;68.68
25945;SHT31;13742;49.306;8.636;2023-06-19T06:06:23;22.76;68.35
25945;SHT31;13742;49.306;8.636;2023-06-19T06:07:23;22.77;68.71
25945;SHT31;13742;49.306;8.636;2023-06-19T06:08:23;22.73;68.80
25945;SHT31;13742;49.306;8.636;2023-06-19T06:09:23;22.70;68.58
25945;SHT31;13742;49.306;8.636;2023-06-19T06:10:24;22.76;68.85
25945;SHT31;13742;49.306;8.636;2023-06-19T06:11:23;22.79;68.80
25945;SHT31;13742;49.306;8.636;2023-06-19T06:12:23;22.83;68.45
25945;SHT31;13742;49.306;8.636;2023-06-19T06:13:23;22.82;68.10
25945;SHT31;13742;49.306;8.636;2023-06-19T06:14:23;22.84;68.32
25945;SHT31;13742;49.306;8.636;2023-06-19T06:15:23;22.84;68.10
25945;SHT31;13742;49.306;8.636;2023-06-19T06:16:23;22.87;68.33
25945;SHT31;13742;49.306;8.636;2023-06-19T06:17:23;22.83;68.52
25945;SHT31;13742;49.306;8.636;2023-06-19T06:18:23;22.87;68.57
25945;SHT31;13742;49.306;8.636;2023-06-19T06:19:23;22.89;68.36
25945;SHT31;13742;49.306;8.636;2023-06-19T06:20:23;22.90;68.29
25945;SHT31;13742;49.306;8.636;2023-06-19T06:21:23;22.93;68.22
25945;SHT31;13742;49.306;8.636;2023-06-19T06:22:23;22.90;68.25
25945;SHT31;13742;49.306;8.636;2023-06-19T06:23:23;22.89;68.44
25945;SHT31;13742;49.306;8.636;2023-06-19T06:24:23;22.90;68.28
25945;SHT31;13742;49.306;8.636;2023-06-19T06:25:23;22.93;68.01
25945;SHT31;13742;49.306;8.636;2023-06-19T06:26:23;22.94;68.18
25945;SHT31;13742;49.306;8.636;2023-06-19T06:27:23;22.93;67.85